createdAt,value
2018-09-06T00:01:45.863Z,100074.34
2018-09-06T00:04:14.777Z,100071.94
2018-09-06T00:06:43.721Z,100068.67
2018-09-06T00:09:12.635Z,100069.41
2018-09-06T00:11:41.557Z,100070.02
2018-09-06T00:14:10.457Z,100065.10
2018-09-06T00:16:39.485Z,100066.70
2018-09-06T00:19:08.510Z,100068.28
2018-09-06T00:21:37.478Z,100059.39
2018-09-06T00:24:06.577Z,100067.81
2018-09-06T00:26:35.509Z,100068.13
2018-09-06T00:29:04.430Z,100064.73
2018-09-06T00:31:33.389Z,100065.59
2018-09-06T00:34:02.322Z,100064.73
2018-09-06T00:36:31.266Z,100066.70
2018-09-06T00:39:00.187Z,100064.23
2018-09-06T00:41:29.173Z,100062.56
2018-09-06T00:43:58.114Z,100069.02
2018-09-06T00:46:27.074Z,100064.09
2018-09-06T00:48:56.025Z,100064.70
2018-09-06T00:51:24.962Z,100060.65
2018-09-06T00:53:53.881Z,100059.13
2018-09-06T00:56:22.823Z,100059.13
2018-09-06T00:58:51.719Z,100052.06
2018-09-06T01:01:20.635Z,100056.20
2018-09-06T01:03:49.545Z,100050.45
2018-09-06T01:06:18.474Z,100047.53
2018-09-06T01:08:47.402Z,100050.63
2018-09-06T01:11:16.459Z,100044.17
2018-09-06T01:13:45.497Z,100049.44
2018-09-06T01:16:14.452Z,100052.38
2018-09-06T01:18:43.404Z,100050.15
2018-09-06T01:21:12.333Z,100050.63
2018-09-06T01:23:41.264Z,100052.23
2018-09-06T01:26:10.214Z,100052.05
2018-09-06T01:28:39.118Z,100045.07
2018-09-06T01:31:08.056Z,100047.69
2018-09-06T01:33:37.150Z,100043.16
2018-09-06T01:36:11.549Z,100046.91
2018-09-06T01:38:40.542Z,100045.55
2018-09-06T01:41:09.457Z,100040.92
2018-09-06T01:43:38.380Z,100051.13
2018-09-06T01:46:07.345Z,100043.79
2018-09-06T01:48:36.286Z,100044.84
2018-09-06T01:51:05.302Z,100043.02
2018-09-06T01:53:34.271Z,100036.31
2018-09-06T01:56:03.203Z,100028.67
2018-09-06T01:58:32.164Z,100030.20
2018-09-06T02:01:01.199Z,100032.97
2018-09-06T02:03:30.135Z,100030.53
2018-09-06T02:05:59.054Z,100031.56
2018-09-06T02:08:27.992Z,100031.47
2018-09-06T02:10:56.942Z,100026.28
2018-09-06T02:13:25.840Z,100027.64
2018-09-06T02:15:54.818Z,100021.04
2018-09-06T02:18:23.721Z,100021.84
2018-09-06T02:20:52.645Z,100017.53
2018-09-06T02:23:21.681Z,100016.34
2018-09-06T02:25:50.628Z,100012.06
2018-09-06T02:28:20.256Z,100014.15
2018-09-06T02:30:49.215Z,100018.21
2018-09-06T02:33:18.202Z,100021.86
2018-09-06T02:35:47.148Z,100018.82
2018-09-06T02:38:16.116Z,100011.17
2018-09-06T02:40:45.086Z,100006.18
2018-09-06T02:43:14.491Z,100002.43
2018-09-06T02:45:44.493Z,100003.48
2018-09-06T02:48:13.457Z,100000.86
2018-09-06T02:50:47.844Z,100000.37
2018-09-06T02:53:16.770Z,99991.75
2018-09-06T02:55:46.363Z,100001.69
2018-09-06T02:59:44.534Z,100002.93
2018-09-06T03:02:13.452Z,100009.48
2018-09-06T03:04:42.603Z,100003.14
2018-09-06T03:07:11.661Z,99997.00
2018-09-06T03:09:40.597Z,99989.95
2018-09-06T03:12:10.437Z,99994.14
2018-09-06T03:14:39.397Z,99998.22
2018-09-06T03:17:08.415Z,99992.03
2018-09-06T03:19:37.376Z,99991.09
2018-09-06T03:22:06.301Z,99981.66
2018-09-06T03:24:35.233Z,99980.97
2018-09-06T03:27:04.230Z,99984.88
2018-09-06T03:29:33.118Z,99986.78
2018-09-06T03:32:02.439Z,99983.03
2018-09-06T03:34:31.373Z,99984.03
2018-09-06T03:37:00.454Z,99980.28
2018-09-06T03:39:29.438Z,99984.09
2018-09-06T03:41:58.379Z,99986.37
2018-09-06T03:44:28.964Z,99987.47
2018-09-06T03:46:57.878Z,99976.22
2018-09-06T03:49:26.842Z,99980.20
2018-09-06T03:51:55.746Z,99980.45
2018-09-06T03:54:24.664Z,99983.51
2018-09-06T03:56:53.708Z,99976.90
2018-09-06T03:59:22.616Z,99975.62
2018-09-06T04:01:52.108Z,99979.33
2018-09-06T04:04:21.074Z,99975.42
2018-09-06T04:06:50.002Z,99975.91
2018-09-06T04:09:19.005Z,99971.73
2018-09-06T04:11:47.927Z,99973.45
2018-09-06T04:14:16.928Z,99969.90
2018-09-06T04:16:46.000Z,99972.79
2018-09-06T04:19:14.926Z,99973.52
2018-09-06T04:21:43.839Z,99974.63
2018-09-06T04:24:12.795Z,99978.74
2018-09-06T04:26:41.731Z,99980.69
2018-09-06T04:29:10.655Z,99978.55
2018-09-06T04:31:39.652Z,99979.11
2018-09-06T04:34:08.616Z,99974.70
2018-09-06T04:36:37.594Z,99981.24
2018-09-06T04:39:08.420Z,99980.81
2018-09-06T04:41:37.308Z,99981.97
2018-09-06T04:44:06.281Z,99978.61
2018-09-06T04:46:35.565Z,99980.13
2018-09-06T04:49:04.521Z,99977.20
2018-09-06T04:51:33.504Z,99981.54
2018-09-06T04:54:02.580Z,99976.64
2018-09-06T04:56:31.479Z,99968.67
2018-09-06T04:59:00.416Z,99971.73
2018-09-06T05:01:29.362Z,99965.48
2018-09-06T05:03:58.315Z,99972.11
2018-09-06T05:06:27.251Z,99976.39
2018-09-06T05:08:56.180Z,99974.86
2018-09-06T05:11:25.321Z,99972.98
2018-09-06T05:13:54.349Z,99974.23
2018-09-06T05:16:23.249Z,99972.02
2018-09-06T05:18:52.167Z,99976.33
2018-09-06T05:21:21.093Z,99974.42
2018-09-06T05:23:50.151Z,99971.95
2018-09-06T05:26:19.196Z,99971.67
2018-09-06T05:28:48.232Z,99967.95
2018-09-06T05:31:17.145Z,99963.23
2018-09-06T05:33:46.156Z,99958.02
2018-09-06T05:36:15.151Z,99958.55
2018-09-06T05:38:44.033Z,99955.38
2018-09-06T05:41:13.066Z,99954.25
2018-09-06T05:43:42.079Z,99955.27
2018-09-06T05:46:11.373Z,99955.26
2018-09-06T05:48:40.505Z,99958.44
2018-09-06T05:51:10.098Z,99960.84
2018-09-06T05:53:39.111Z,99962.42
2018-09-06T05:56:08.105Z,99960.44
2018-09-06T05:58:37.054Z,99967.86
2018-09-06T06:01:06.702Z,99957.32
2018-09-06T06:03:35.617Z,99955.53
2018-09-06T06:06:04.546Z,99961.02
2018-09-06T06:08:40.144Z,99962.81
2018-09-06T06:11:09.315Z,99964.50
2018-09-06T06:13:38.225Z,99967.91
2018-09-06T06:16:07.225Z,99968.48
2018-09-06T06:18:36.112Z,99960.46
2018-09-06T06:21:05.431Z,99953.71
2018-09-06T06:23:34.525Z,99946.50
2018-09-06T06:26:03.497Z,99940.17
2018-09-06T06:28:32.623Z,99943.91
2018-09-06T06:31:01.531Z,99937.69
2018-09-06T06:33:30.450Z,99939.56
2018-09-06T06:35:59.378Z,99935.53
2018-09-06T06:38:28.302Z,99934.40
2018-09-06T06:40:57.226Z,99931.28
2018-09-06T06:43:26.215Z,99931.44
2018-09-06T06:45:55.127Z,99932.93
2018-09-06T06:48:24.040Z,99926.94
2018-09-06T06:50:52.959Z,99931.84
2018-09-06T06:53:21.877Z,99930.20
2018-09-06T06:55:50.797Z,99926.09
2018-09-06T06:58:19.746Z,99928.61
2018-09-06T07:00:48.674Z,99916.22
2018-09-06T07:03:17.626Z,99914.48
2018-09-06T07:05:46.615Z,99917.72
2018-09-06T07:08:15.556Z,99911.67
2018-09-06T07:10:44.686Z,99914.05
2018-09-06T07:13:13.663Z,99909.83
2018-09-06T07:15:42.596Z,99914.80
2018-09-06T07:18:11.591Z,99909.08
2018-09-06T07:20:40.550Z,99907.13
2018-09-06T07:23:09.456Z,99905.06
2018-09-06T07:25:38.381Z,99905.41
2018-09-06T07:28:07.347Z,99913.25
2018-09-06T07:30:36.345Z,99914.78
2018-09-06T07:33:05.225Z,99913.00
2018-09-06T07:35:34.132Z,99909.73
2018-09-06T07:38:03.032Z,99908.05
2018-09-06T07:40:32.011Z,99907.56
2018-09-06T07:43:00.911Z,99908.65
2018-09-06T07:45:29.916Z,99906.32
2018-09-06T07:47:58.945Z,99905.13
2018-09-06T07:50:27.851Z,99893.20
2018-09-06T07:52:56.813Z,99897.31
2018-09-06T07:55:25.794Z,99896.34
2018-09-06T07:57:54.728Z,99892.79
2018-09-06T08:00:23.730Z,99893.17
2018-09-06T08:02:52.637Z,99886.66
2018-09-06T08:05:21.580Z,99887.92
2018-09-06T08:07:50.525Z,99883.38
2018-09-06T08:10:19.462Z,99883.50
2018-09-06T08:12:48.434Z,99878.03
2018-09-06T08:15:17.373Z,99880.40
2018-09-06T08:17:46.328Z,99877.77
2018-09-06T08:20:15.235Z,99873.69
2018-09-06T08:22:44.188Z,99872.93
2018-09-06T08:25:13.110Z,99876.05
2018-09-06T08:27:42.007Z,99869.24
2018-09-06T08:30:10.929Z,99869.06
2018-09-06T08:32:39.878Z,99864.64
2018-09-06T08:35:08.791Z,99870.14
2018-09-06T08:37:37.717Z,99875.11
2018-09-06T08:40:06.736Z,99870.36
2018-09-06T08:42:35.610Z,99873.61
2018-09-06T08:45:04.576Z,99875.88
2018-09-06T08:47:33.680Z,99869.93
2018-09-06T08:50:02.501Z,99866.80
2018-09-06T08:52:31.490Z,99863.08
2018-09-06T08:55:00.365Z,99862.98
2018-09-06T08:57:29.271Z,99856.45
2018-09-06T08:59:58.446Z,99854.00
2018-09-06T09:02:27.377Z,99853.28
2018-09-06T09:04:56.236Z,99845.03
2018-09-06T09:07:25.217Z,99846.89
2018-09-06T09:09:54.065Z,99840.31
2018-09-06T09:12:23.055Z,99846.56
2018-09-06T09:14:51.897Z,99835.40
2018-09-06T09:17:20.793Z,99836.36
2018-09-06T09:19:49.700Z,99838.75
2018-09-06T09:22:18.657Z,99822.98
2018-09-06T09:24:47.556Z,99837.81
2018-09-06T09:27:16.474Z,99833.75
2018-09-06T09:29:45.424Z,99823.31
2018-09-06T09:32:14.343Z,99829.39
2018-09-06T09:34:43.252Z,99827.75
2018-09-06T09:37:12.164Z,99820.35
2018-09-06T09:39:41.110Z,99815.73
2018-09-06T09:42:10.097Z,99812.23
2018-09-06T09:44:39.206Z,99804.64
2018-09-06T09:49:36.206Z,99809.50
2018-09-06T09:52:05.106Z,99796.97
2018-09-06T09:54:34.017Z,99809.05
2018-09-06T09:57:02.985Z,99805.97
2018-09-06T09:59:31.828Z,99803.16
2018-09-06T10:02:06.203Z,99792.94
2018-09-06T10:04:39.052Z,99782.91
2018-09-06T10:07:13.529Z,99792.59
2018-09-06T10:09:42.473Z,99791.17
2018-09-06T10:12:11.407Z,99776.69
2018-09-06T10:14:40.339Z,99793.84
2018-09-06T10:17:09.269Z,99787.48
2018-09-06T10:19:38.243Z,99776.80
2018-09-06T10:22:07.162Z,99776.56
2018-09-06T10:24:36.082Z,99768.80
2018-09-06T10:27:05.085Z,99773.45
2018-09-06T10:29:40.606Z,99774.37
2018-09-06T10:32:09.519Z,99768.75
2018-09-06T10:34:38.423Z,99754.41
2018-09-06T10:37:07.353Z,99749.33
2018-09-06T10:39:36.268Z,99746.11
2018-09-06T10:42:05.185Z,99743.73
2018-09-06T10:44:34.106Z,99745.92
2018-09-06T10:47:03.015Z,99751.37
2018-09-06T10:49:31.915Z,99732.08
2018-09-06T10:52:00.860Z,99731.48
2018-09-06T10:54:29.779Z,99734.81
2018-09-06T10:56:58.692Z,99726.73
2018-09-06T10:59:27.984Z,99731.23
2018-09-06T11:01:57.152Z,99723.43
2018-09-06T11:04:26.514Z,99722.55
2018-09-06T11:06:55.437Z,99723.84
2018-09-06T11:09:24.349Z,99716.67
2018-09-06T11:11:53.279Z,99715.14
2018-09-06T11:14:22.192Z,99710.02
2018-09-06T11:16:51.109Z,99710.25
2018-09-06T11:19:20.053Z,99712.46
2018-09-06T11:21:49.134Z,99707.73
2018-09-06T11:24:17.912Z,99707.77
2018-09-06T11:26:46.982Z,99705.79
2018-09-06T11:29:15.898Z,99702.08
2018-09-06T11:31:44.796Z,99699.84
2018-09-06T11:34:13.711Z,99703.34
2018-09-06T11:36:42.668Z,99698.91
2018-09-06T11:39:11.605Z,99698.67
2018-09-06T11:41:40.980Z,99701.34
2018-09-06T11:44:09.895Z,99695.86
2018-09-06T11:46:39.192Z,99692.98
2018-09-06T11:49:08.105Z,99682.64
2018-09-06T11:51:37.029Z,99684.02
2018-09-06T11:54:05.952Z,99683.05
2018-09-06T11:56:34.895Z,99677.90
2018-09-06T11:59:03.805Z,99680.50
2018-09-06T12:01:32.724Z,99672.03
2018-09-06T12:04:01.688Z,99669.30
2018-09-06T12:06:30.630Z,99665.20
2018-09-06T12:08:59.548Z,99659.20
2018-09-06T12:11:28.471Z,99660.78
2018-09-06T12:13:57.425Z,99664.91
2018-09-06T12:16:26.337Z,99650.42
2018-09-06T12:18:55.243Z,99651.62
2018-09-06T12:21:24.180Z,99643.36
2018-09-06T12:23:53.109Z,99644.00
2018-09-06T12:26:22.025Z,99647.92
2018-09-06T12:28:51.037Z,99651.45
2018-09-06T12:31:20.050Z,99641.54
2018-09-06T12:33:49.005Z,99638.48
2018-09-06T12:36:17.946Z,99634.91
2018-09-06T12:38:47.101Z,99634.80
2018-09-06T12:41:16.276Z,99630.25
2018-09-06T12:43:45.469Z,99618.70
2018-09-06T12:46:14.668Z,99618.71
2018-09-06T12:48:43.795Z,99609.20
2018-09-06T12:51:12.720Z,99599.65
2018-09-06T12:53:41.651Z,99599.75
2018-09-06T12:56:10.609Z,99607.09
2018-09-06T12:58:39.543Z,99601.73
2018-09-06T13:01:08.475Z,99603.71
2018-09-06T13:03:37.397Z,99597.91
2018-09-06T13:06:06.511Z,99597.75
2018-09-06T13:08:35.521Z,99598.45
2018-09-06T13:11:04.526Z,99586.64
2018-09-06T13:13:33.588Z,99585.86
2018-09-06T13:16:02.517Z,99581.98
2018-09-06T13:18:31.528Z,99587.13
2018-09-06T13:21:00.421Z,99588.98
2018-09-06T13:23:29.329Z,99589.41
2018-09-06T13:25:58.300Z,99587.42
2018-09-06T13:28:27.321Z,99581.09
2018-09-06T13:30:56.267Z,99581.75
2018-09-06T13:33:25.206Z,99571.58
2018-09-06T13:35:54.130Z,99565.80
2018-09-06T13:38:23.063Z,99562.79
2018-09-06T13:40:52.022Z,99557.33
2018-09-06T13:43:21.177Z,99555.92
2018-09-06T13:45:50.173Z,99548.28
2018-09-06T13:48:19.104Z,99549.15
2018-09-06T13:50:48.088Z,99547.36
2018-09-06T13:53:16.993Z,99545.13
2018-09-06T13:55:45.907Z,99546.80
2018-09-06T13:58:19.956Z,99554.34
2018-09-06T14:00:48.949Z,99547.05
2018-09-06T14:03:17.920Z,99547.63
2018-09-06T14:05:46.959Z,99549.83
2018-09-06T14:08:15.871Z,99539.14
2018-09-06T14:10:44.761Z,99535.66
2018-09-06T14:13:13.665Z,99527.36
2018-09-06T14:15:42.575Z,99526.57
2018-09-06T14:18:11.519Z,99527.27
2018-09-06T14:20:40.421Z,99518.14
2018-09-06T14:23:09.322Z,99512.23
2018-09-06T14:25:38.231Z,99511.92
2018-09-06T14:28:07.257Z,99517.92
2018-09-06T14:30:36.186Z,99515.08
2018-09-06T14:33:05.117Z,99516.52
2018-09-06T14:35:34.084Z,99508.39
2018-09-06T14:38:03.169Z,99503.00
2018-09-06T14:40:32.058Z,99506.80
2018-09-06T14:43:01.034Z,99491.23
2018-09-06T14:45:29.977Z,99493.03
2018-09-06T14:47:58.918Z,99492.66
2018-09-06T14:50:27.914Z,99487.61
2018-09-06T14:52:56.791Z,99486.63
2018-09-06T14:55:26.788Z,99481.86
2018-09-06T14:57:55.709Z,99477.66
2018-09-06T15:00:31.071Z,99479.80
2018-09-06T15:03:00.010Z,99479.55
2018-09-06T15:05:28.947Z,99464.53
2018-09-06T15:07:57.923Z,99468.06
2018-09-06T15:10:26.812Z,99472.31
2018-09-06T15:12:55.723Z,99458.17
2018-09-06T15:15:24.749Z,99463.84
2018-09-06T15:17:53.678Z,99465.50
2018-09-06T15:20:22.614Z,99464.80
2018-09-06T15:22:51.566Z,99454.97
2018-09-06T15:25:20.468Z,99458.09
2018-09-06T15:27:49.553Z,99459.38
2018-09-06T15:30:18.530Z,99462.17
2018-09-06T15:32:47.454Z,99454.86
2018-09-06T15:35:16.367Z,99459.62
2018-09-06T15:37:45.293Z,99447.09
2018-09-06T15:40:14.305Z,99448.17
2018-09-06T15:42:43.229Z,99453.47
2018-09-06T15:45:12.133Z,99439.87
2018-09-06T15:47:41.080Z,99439.05
2018-09-06T15:50:09.983Z,99442.97
2018-09-06T15:52:39.052Z,99441.40
2018-09-06T15:55:07.976Z,99435.06
2018-09-06T15:57:36.961Z,99435.88
2018-09-06T16:00:05.890Z,99436.09
2018-09-06T16:02:34.859Z,99443.25
2018-09-06T16:05:03.808Z,99437.70
2018-09-06T16:07:32.734Z,99440.67
2018-09-06T16:10:01.699Z,99446.67
2018-09-06T16:12:30.657Z,99442.13
2018-09-06T16:14:59.578Z,99443.64
2018-09-06T16:17:28.560Z,99442.13
2018-09-06T16:19:57.542Z,99439.74
2018-09-06T16:22:26.463Z,99446.19
2018-09-06T16:24:55.530Z,99437.36
2018-09-06T16:27:24.455Z,99442.56
2018-09-06T16:29:53.377Z,99445.34
2018-09-06T16:32:22.378Z,99449.62
2018-09-06T16:34:51.286Z,99446.97
2018-09-06T16:37:20.205Z,99451.23
2018-09-06T16:39:49.134Z,99451.30
2018-09-06T16:42:18.043Z,99453.38
2018-09-06T16:44:47.020Z,99448.44
2018-09-06T16:47:15.908Z,99451.13
2018-09-06T16:49:44.858Z,99453.13
2018-09-06T16:52:13.822Z,99445.64
2018-09-06T16:54:42.790Z,99446.83
2018-09-06T16:57:11.704Z,99457.24
2018-09-06T16:59:40.608Z,99457.76
2018-09-06T17:02:09.625Z,99462.63
2018-09-06T17:04:38.551Z,99453.08
2018-09-06T17:07:07.504Z,99450.07
2018-09-06T17:09:36.501Z,99445.35
2018-09-06T17:12:05.427Z,99448.38
2018-09-06T17:14:34.488Z,99447.48
2018-09-06T17:17:03.315Z,99445.59
2018-09-06T17:19:32.233Z,99446.05
2018-09-06T17:22:01.146Z,99449.97
2018-09-06T17:24:30.098Z,99447.50
2018-09-06T17:26:59.079Z,99444.96
2018-09-06T17:29:27.985Z,99450.53
2018-09-06T17:31:56.928Z,99448.80
2018-09-06T17:34:26.046Z,99447.24
2018-09-06T17:36:54.956Z,99450.80
2018-09-06T17:39:23.935Z,99450.80
2018-09-06T17:41:52.925Z,99448.84
2018-09-06T17:44:21.868Z,99445.27
2018-09-06T17:46:50.806Z,99446.06
2018-09-06T17:49:19.738Z,99447.59
2018-09-06T17:51:48.686Z,99444.83
2018-09-06T17:54:17.637Z,99449.08
2018-09-06T17:56:46.544Z,99451.21
2018-09-06T17:59:15.500Z,99449.58
2018-09-06T18:01:44.608Z,99453.89
2018-09-06T18:04:13.527Z,99453.44
2018-09-06T18:06:42.457Z,99453.81
2018-09-06T18:09:12.780Z,99455.70
2018-09-06T18:11:42.289Z,99456.66
2018-09-06T18:14:11.351Z,99451.74
2018-09-06T18:16:40.465Z,99451.08
2018-09-06T18:19:09.363Z,99453.77
2018-09-06T18:21:38.283Z,99452.13
2018-09-06T18:24:07.274Z,99449.94
2018-09-06T18:26:36.277Z,99455.15
2018-09-06T18:29:05.221Z,99453.32
2018-09-06T18:31:34.170Z,99450.95
2018-09-06T18:34:03.247Z,99444.28
2018-09-06T18:36:32.157Z,99450.89
2018-09-06T18:39:01.183Z,99454.93
2018-09-06T18:41:30.151Z,99456.11
2018-09-06T18:43:59.232Z,99459.92
2018-09-06T18:46:28.124Z,99453.25
2018-09-06T18:48:57.054Z,99460.20
2018-09-06T18:51:25.988Z,99467.20
2018-09-06T18:53:54.982Z,99462.33
2018-09-06T18:56:23.909Z,99462.88
2018-09-06T18:58:52.893Z,99469.28
2018-09-06T19:01:21.897Z,99476.04
2018-09-06T19:03:50.901Z,99478.16
2018-09-06T19:06:19.807Z,99482.02
2018-09-06T19:08:49.254Z,99481.91
2018-09-06T19:11:18.539Z,99484.39
2018-09-06T19:13:47.457Z,99485.16
2018-09-06T19:16:16.453Z,99485.53
2018-09-06T19:18:45.444Z,99483.14
2018-09-06T19:21:14.511Z,99485.45
2018-09-06T19:23:43.653Z,99493.97
2018-09-06T19:26:12.593Z,99480.47
2018-09-06T19:28:42.627Z,99482.77
2018-09-06T19:31:15.557Z,99484.47
2018-09-06T19:33:44.529Z,99485.75
2018-09-06T19:36:13.469Z,99483.45
2018-09-06T19:38:42.411Z,99484.98
2018-09-06T19:41:18.350Z,99488.27
2018-09-06T19:43:47.308Z,99481.16
2018-09-06T19:46:16.341Z,99483.78
2018-09-06T19:48:45.395Z,99481.38
2018-09-06T19:51:14.329Z,99484.83
2018-09-06T19:53:43.290Z,99480.61
2018-09-06T19:56:12.325Z,99479.20
2018-09-06T19:58:41.337Z,99478.74
2018-09-06T20:01:10.298Z,99480.00
2018-09-06T20:03:41.859Z,99472.66
2018-09-06T20:06:10.790Z,99473.09
2018-09-06T20:08:39.749Z,99475.16
2018-09-06T20:11:09.964Z,99477.97
2018-09-06T20:13:38.877Z,99477.63
2018-09-06T20:16:07.907Z,99478.44
2018-09-06T20:18:36.796Z,99479.68
2018-09-06T20:21:05.733Z,99474.78
2018-09-06T20:23:35.001Z,99478.55
2018-09-06T20:26:04.306Z,99489.36
2018-09-06T20:28:33.194Z,99487.45
2018-09-06T20:31:02.377Z,99482.81
2018-09-06T20:33:31.602Z,99483.08
2018-09-06T20:36:00.505Z,99489.05
2018-09-06T20:38:29.541Z,99487.03
2018-09-06T20:40:58.589Z,99483.63
2018-09-06T20:43:27.521Z,99485.63
2018-09-06T20:45:56.567Z,99484.56
2018-09-06T20:48:25.514Z,99484.57
2018-09-06T20:50:54.455Z,99480.98
2018-09-06T20:53:23.450Z,99479.97
2018-09-06T20:55:52.348Z,99475.84
2018-09-06T20:58:21.445Z,99476.19
2018-09-06T21:00:50.348Z,99475.17
2018-09-06T21:03:19.376Z,99467.94
2018-09-06T21:05:48.356Z,99467.88
2018-09-06T21:08:17.302Z,99466.23
2018-09-06T21:10:46.344Z,99471.18
2018-09-06T21:13:15.208Z,99469.73
2018-09-06T21:15:44.161Z,99473.14
2018-09-06T21:18:13.120Z,99473.92
2018-09-06T21:20:42.069Z,99466.19
2018-09-06T21:23:11.075Z,99471.34
2018-09-06T21:25:40.081Z,99465.77
2018-09-06T21:28:08.972Z,99465.13
2018-09-06T21:30:37.937Z,99462.15
2018-09-06T21:33:06.984Z,99465.77
2018-09-06T21:35:36.000Z,99458.71
2018-09-06T21:38:04.918Z,99463.86
2018-09-06T21:40:33.856Z,99454.77
2018-09-06T21:43:02.797Z,99457.88
2018-09-06T21:45:31.871Z,99460.02
2018-09-06T21:48:00.842Z,99458.08
2018-09-06T21:50:29.913Z,99463.02
2018-09-06T21:52:58.844Z,99458.85
2018-09-06T21:55:27.768Z,99466.11
2018-09-06T21:57:56.706Z,99466.83
2018-09-06T22:00:25.654Z,99468.05
2018-09-06T22:02:59.894Z,99465.81
2018-09-06T22:05:28.931Z,99466.48
2018-09-06T22:07:57.852Z,99460.02
2018-09-06T22:10:26.752Z,99463.52
2018-09-06T22:12:55.685Z,99464.53
2018-09-06T22:15:24.729Z,99464.58
2018-09-06T22:17:53.697Z,99468.22
2018-09-06T22:20:22.614Z,99459.91
2018-09-06T22:22:51.529Z,99460.46
2018-09-06T22:25:21.335Z,99461.24
2018-09-06T22:27:50.278Z,99453.78
2018-09-06T22:30:19.269Z,99458.20
2018-09-06T22:32:48.216Z,99455.89
2018-09-06T22:35:17.155Z,99454.88
2018-09-06T22:37:46.054Z,99458.30
2018-09-06T22:40:14.961Z,99460.98
2018-09-06T22:42:43.897Z,99454.84
2018-09-06T22:45:12.830Z,99455.42
2018-09-06T22:47:41.817Z,99447.20
2018-09-06T22:50:10.890Z,99446.35
2018-09-06T22:52:39.820Z,99436.20
2018-09-06T22:55:08.710Z,99432.84
2018-09-06T22:57:37.638Z,99434.33
2018-09-06T23:00:07.208Z,99438.74
2018-09-06T23:02:41.574Z,99432.53
2018-09-06T23:05:19.301Z,99432.70
2018-09-06T23:07:48.220Z,99437.73
2018-09-06T23:10:17.179Z,99440.34
2018-09-06T23:12:46.210Z,99441.05
2018-09-06T23:15:15.161Z,99428.39
2018-09-06T23:17:44.096Z,99432.61
2018-09-06T23:20:13.032Z,99429.12
2018-09-06T23:22:41.977Z,99429.77
2018-09-06T23:25:10.932Z,99425.10
2018-09-06T23:27:39.895Z,99425.16
2018-09-06T23:30:08.861Z,99426.06
2018-09-06T23:32:37.827Z,99429.51
2018-09-06T23:35:06.739Z,99427.48
2018-09-06T23:37:35.689Z,99430.71
2018-09-06T23:40:04.658Z,99421.22
2018-09-06T23:42:33.581Z,99418.88
2018-09-06T23:45:02.509Z,99424.30
2018-09-06T23:47:31.443Z,99418.38
2018-09-06T23:50:00.386Z,99419.80
2018-09-06T23:52:29.378Z,99410.44
2018-09-06T23:54:58.387Z,99415.22
2018-09-06T23:57:27.371Z,99411.04
2018-09-06T23:59:56.288Z,99407.55
